| time (UTC) | temp F | wind direction | speed MPH | gust MPH | rain 1hr in | rain 24hr in | rain mn in | humidity % | barometer mb |
| 20260510193048 | 60 | 207 | 3.0 | 10.0 | 0.00 | 0.16 | 0.16 | 49 | 1010.7 |
| 20260510191547 | 61 | 219 | 6.0 | 13.0 | 0.00 | 0.16 | 0.16 | 52 | 1010.6 |
| 20260510190057 | 60 | 311 | 7.0 | 14.0 | 0.00 | 0.16 | 0.16 | 56 | 1010.8 |
| 20260510184545 | 59 | 257 | 4.0 | 9.0 | 0.00 | 0.16 | 0.16 | 60 | 1010.8 |
| 20260510183042 | 59 | 238 | 2.0 | 9.0 | 0.00 | 0.16 | 0.16 | 62 | 1010.7 |
| 20260510181550 | 60 | 211 | 2.0 | 8.0 | 0.00 | 0.16 | 0.16 | 64 | 1010.5 |
| 20260510180038 | 59 | 215 | 4.0 | 12.0 | 0.00 | 0.16 | 0.16 | 70 | 1010.7 |
| 20260510174535 | 58 | 254 | 3.0 | 10.0 | 0.00 | 0.16 | 0.16 | 75 | 1010.8 |
| 20260510173033 | 56 | 226 | 3.0 | 9.0 | 0.00 | 0.16 | 0.16 | 72 | 1010.8 |
| 20260510171544 | 57 | 255 | 3.0 | 8.0 | 0.00 | 0.16 | 0.16 | 70 | 1010.9 |
| 20260510170028 | 56 | 245 | 3.0 | 12.0 | 0.00 | 0.16 | 0.16 | 74 | 1011.0 |
| 20260510164525 | 55 | 242 | 5.0 | 15.0 | 0.00 | 0.16 | 0.16 | 73 | 1011.0 |
| 20260510163023 | 53 | 261 | 5.0 | 12.0 | 0.07 | 0.16 | 0.16 | 81 | 1011.0 |
| 20260510161522 | 53 | 197 | 3.0 | 9.0 | 0.10 | 0.16 | 0.16 | 88 | 1010.9 |
| 20260510160030 | 52 | 215 | 1.0 | 11.0 | 0.10 | 0.16 | 0.16 | 89 | 1010.9 |
| 20260510154518 | 53 | 281 | 4.0 | 11.0 | 0.10 | 0.16 | 0.16 | 89 | 1010.6 |
| 20260510153027 | 55 | 234 | 6.0 | 13.0 | 0.02 | 0.08 | 0.08 | 88 | 1010.3 |
| 20260510151519 | 55 | 232 | 3.0 | 8.0 | 0.00 | 0.06 | 0.06 | 88 | 1010.0 |
| 20260510150015 | 54 | 248 | 3.0 | 7.0 | 0.00 | 0.06 | 0.06 | 91 | 1009.8 |
| 20260510144512 | 53 | 227 | 2.0 | 5.0 | 0.00 | 0.06 | 0.06 | 90 | 1009.8 |
| 20260510143012 | 54 | 300 | 2.0 | 5.0 | 0.01 | 0.06 | 0.06 | 90 | 1009.8 |
| 20260510141508 | 53 | 304 | 2.0 | 5.0 | 0.01 | 0.06 | 0.06 | 91 | 1009.8 |
| 20260510140006 | 53 | 257 | 0.0 | 3.0 | 0.01 | 0.06 | 0.06 | 91 | 1009.7 |
| 20260510134505 | 52 | 259 | 1.0 | 4.0 | 0.01 | 0.06 | 0.06 | 91 | 1009.7 |
| 20260510133005 | 53 | 306 | 2.0 | 9.0 | 0.00 | 0.05 | 0.05 | 89 | 1009.6 |
| 20260510131502 | 53 | 290 | 4.0 | 9.0 | 0.00 | 0.05 | 0.05 | 88 | 1009.6 |
| 20260510130002 | 52 | 280 | 3.0 | 9.0 | 0.00 | 0.05 | 0.05 | 89 | 1009.4 |
| 20260510124503 | 52 | 267 | 4.0 | 9.0 | 0.00 | 0.05 | 0.05 | 89 | 1009.5 |
| 20260510123100 | 52 | 265 | 4.0 | 8.0 | 0.00 | 0.05 | 0.05 | 89 | 1009.5 |
| 20260510121600 | 52 | 237 | 2.0 | 7.0 | 0.00 | 0.05 | 0.05 | 91 | 1009.3 |
| 20260510120059 | 52 | 273 | 5.0 | 10.0 | 0.00 | 0.05 | 0.05 | 90 | 1009.6 |
| 20260510114620 | 52 | 227 | 2.0 | 7.0 | 0.00 | 0.05 | 0.05 | 91 | 1009.2 |
| 20260510113058 | 51 | 237 | 1.0 | 5.0 | 0.00 | 0.05 | 0.05 | 92 | 1009.3 |
| 20260510111548 | 50 | 262 | 4.0 | 7.0 | 0.00 | 0.05 | 0.05 | 92 | 1009.4 |
| 20260510110055 | 50 | 174 | 0.0 | 3.0 | 0.00 | 0.05 | 0.05 | 93 | 1008.8 |
| 20260510104541 | 50 | 244 | 1.0 | 7.0 | 0.00 | 0.05 | 0.05 | 94 | 1009.0 |
| 20260510103043 | 49 | 260 | 3.0 | 7.0 | 0.00 | 0.05 | 0.05 | 95 | 1008.6 |
| 20260510101541 | 47 | 88 | 0.0 | 2.0 | 0.00 | 0.05 | 0.05 | 95 | 1008.6 |
| 20260510100047 | 47 | 262 | 0.0 | 0.0 | 0.00 | 0.05 | 0.05 | 94 | 1008.9 |
| 20260510094541 | 48 | 262 | 0.0 | 6.0 | 0.01 | 0.05 | 0.05 | 94 | 1008.6 |
| 20260510093038 | 47 | 258 | 0.0 | 3.0 | 0.01 | 0.05 | 0.05 | 95 | 1008.4 |
| 20260510091532 | 47 | 242 | 0.0 | 1.0 | 0.02 | 0.05 | 0.05 | 93 | 1008.1 |
| 20260510090032 | 48 | 258 | 2.0 | 5.0 | 0.02 | 0.05 | 0.05 | 94 | 1008.1 |
| 20260510084533 | 48 | 285 | 4.0 | 10.0 | 0.02 | 0.04 | 0.04 | 94 | 1008.0 |
| 20260510083029 | 48 | 307 | 2.0 | 5.0 | 0.03 | 0.04 | 0.04 | 94 | 1008.0 |
| 20260510081537 | 48 | 320 | 1.0 | 5.0 | 0.03 | 0.03 | 0.03 | 94 | 1008.5 |
| 20260510080050 | 48 | 241 | 3.0 | 8.0 | 0.03 | 0.03 | 0.03 | 93 | 1008.7 |
| 20260510074527 | 48 | 264 | 3.0 | 10.0 | 0.02 | 0.02 | 0.02 | 93 | 1008.7 |
| 20260510073037 | 48 | 288 | 3.0 | 8.0 | 0.01 | 0.01 | 0.01 | 92 | 1008.6 |
| 20260510071522 | 49 | 300 | 5.0 | 11.0 | 0.00 | 0.00 | 0.00 | 91 | 1008.7 |
| 20260510070022 | 49 | 293 | 6.0 | 15.0 | 0.00 | 0.00 | 0.00 | 89 | 1008.6 |
| 20260510064517 | 49 | 259 | 6.0 | 12.0 | 0.00 | 0.00 | 0.00 | 89 | 1008.6 |
| 20260510063018 | 49 | 275 | 8.0 | 13.0 | 0.00 | 0.00 | 0.00 | 89 | 1008.3 |
| 20260510061515 | 49 | 240 | 7.0 | 11.0 | 0.00 | 0.00 | 0.00 | 89 | 1008.6 |
| 20260510060023 | 49 | 259 | 4.0 | 11.0 | 0.00 | 0.00 | 0.00 | 89 | 1008.7 |
| 20260510054516 | 49 | 207 | 4.0 | 10.0 | 0.00 | 0.00 | 0.00 | 89 | 1008.7 |
| 20260510053009 | 49 | 317 | 8.0 | 15.0 | 0.00 | 0.00 | 0.00 | 89 | 1008.9 |
| 20260510051507 | 49 | 225 | 5.0 | 12.0 | 0.00 | 0.00 | 0.00 | 89 | 1008.9 |
| 20260510050005 | 49 | 292 | 3.0 | 11.0 | 0.00 | 0.00 | 0.00 | 89 | 1008.8 |
| 20260510044504 | 49 | 245 | 7.0 | 12.0 | 0.00 | 0.00 | 0.00 | 88 | 1008.8 |
| 20260510043001 | 49 | 314 | 8.0 | 14.0 | 0.00 | 0.00 | 0.00 | 88 | 1008.9 |
| 20260510041609 | 49 | 240 | 5.0 | 10.0 | 0.00 | 0.00 | 0.00 | 88 | 1008.5 |
| 20260510040104 | 49 | 232 | 5.0 | 11.0 | 0.00 | 0.00 | 0.00 | 88 | 1008.7 |
| 20260510034551 | 49 | 284 | 8.0 | 13.0 | 0.00 | 0.00 | 0.00 | 88 | 1008.9 |
| 20260510033056 | 49 | 243 | 5.0 | 11.0 | 0.00 | 0.00 | 0.00 | 88 | 1009.1 |
| 20260510031552 | 49 | 242 | 3.0 | 8.0 | 0.00 | 0.00 | 0.00 | 88 | 1009.0 |
| 20260510030050 | 49 | 236 | 5.0 | 10.0 | 0.00 | 0.00 | 0.00 | 87 | 1009.2 |
| 20260510024549 | 49 | 245 | 3.0 | 11.0 | 0.00 | 0.00 | 0.00 | 87 | 1009.1 |
| 20260510023050 | 49 | 288 | 5.0 | 10.0 | 0.00 | 0.00 | 0.00 | 86 | 1009.2 |
| 20260510021637 | 49 | 205 | 5.0 | 13.0 | 0.00 | 0.00 | 0.00 | 85 | 1009.4 |
| 20260510020049 | 49 | 219 | 6.0 | 15.0 | 0.00 | 0.00 | 0.00 | 85 | 1009.3 |
| 20260510014554 | 49 | 226 | 4.0 | 11.0 | 0.00 | 0.00 | 0.00 | 86 | 1009.4 |
| 20260510013056 | 49 | 254 | 3.0 | 8.0 | 0.00 | 0.00 | 0.00 | 86 | 1009.5 |
| 20260510011544 | 49 | 266 | 4.0 | 11.0 | 0.00 | 0.00 | 0.00 | 86 | 1009.6 |
| 20260510010053 | 49 | 259 | 3.0 | 8.0 | 0.00 | 0.00 | 0.00 | 86 | 1009.7 |
| 20260510004542 | 49 | 231 | 4.0 | 10.0 | 0.00 | 0.00 | 0.00 | 86 | 1009.8 |
| 20260510003042 | 48 | 239 | 3.0 | 8.0 | 0.00 | 0.00 | 0.00 | 86 | 1009.8 |
| 20260510001541 | 48 | 284 | 3.0 | 7.0 | 0.00 | 0.00 | 0.00 | 86 | 1009.6 |
| 20260510000041 | 48 | 275 | 0.0 | 6.0 | 0.00 | 0.00 | 0.00 | 86 | 1009.6 |
| 20260509234541 | 48 | 300 | 2.0 | 5.0 | 0.00 | 0.00 | 0.00 | 85 | 1009.6 |
| 20260509233040 | 49 | 252 | 0.0 | 4.0 | 0.00 | 0.00 | 0.00 | 85 | 1009.4 |
| 20260509231543 | 49 | 252 | 1.0 | 4.0 | 0.00 | 0.00 | 0.00 | 84 | 1009.4 |
| 20260509230044 | 49 | 259 | 3.0 | 6.0 | 0.00 | 0.00 | 0.00 | 83 | 1009.5 |
| 20260509224538 | 49 | 224 | 2.0 | 8.0 | 0.00 | 0.00 | 0.00 | 81 | 1009.5 |
| 20260509223039 | 49 | 242 | 3.0 | 8.0 | 0.00 | 0.00 | 0.00 | 81 | 1009.5 |
| 20260509221539 | 49 | 217 | 2.0 | 5.0 | 0.00 | 0.00 | 0.00 | 82 | 1009.6 |
| 20260509220036 | 49 | 211 | 2.0 | 7.0 | 0.00 | 0.00 | 0.00 | 82 | 1009.7 |
| 20260509214537 | 49 | 175 | 2.0 | 8.0 | 0.00 | 0.00 | 0.00 | 83 | 1009.9 |
| 20260509213036 | 49 | 196 | 5.0 | 9.0 | 0.00 | 0.00 | 0.00 | 83 | 1010.0 |
| 20260509211532 | 49 | 265 | 3.0 | 8.0 | 0.00 | 0.00 | 0.00 | 85 | 1010.0 |
| 20260509210035 | 49 | 264 | 3.0 | 10.0 | 0.00 | 0.00 | 0.00 | 83 | 1010.1 |
| 20260509204529 | 49 | 232 | 4.0 | 10.0 | 0.00 | 0.00 | 0.00 | 82 | 1010.2 |
| 20260509203028 | 50 | 214 | 5.0 | 12.0 | 0.00 | 0.00 | 0.00 | 79 | 1010.2 |
| 20260509201528 | 50 | 229 | 5.0 | 14.0 | 0.00 | 0.00 | 0.00 | 78 | 1010.2 |
| 20260509200028 | 51 | 250 | 6.0 | 13.0 | 0.00 | 0.00 | 0.00 | 76 | 1010.3 |
| 20260509194540 | 51 | 213 | 3.0 | 10.0 | 0.00 | 0.00 | 0.00 | 75 | 1010.2 |